sensor_id;sensor_type;location;lat;lon;timestamp;temperature;humidity
7700;DHT22;3892;47.794;19.126;2023-03-01T00:01:28;12.70;30.00
7700;DHT22;3892;47.794;19.126;2023-03-01T00:03:56;12.70;30.00
7700;DHT22;3892;47.794;19.126;2023-03-01T00:06:25;12.70;29.90
7700;DHT22;3892;47.794;19.126;2023-03-01T00:08:53;12.70;29.90
7700;DHT22;3892;47.794;19.126;2023-03-01T00:11:21;12.70;29.90
7700;DHT22;3892;47.794;19.126;2023-03-01T00:13:51;12.70;30.00
7700;DHT22;3892;47.794;19.126;2023-03-01T00:16:20;12.70;30.00
7700;DHT22;3892;47.794;19.126;2023-03-01T00:18:47;12.60;30.00
7700;DHT22;3892;47.794;19.126;2023-03-01T00:21:15;12.60;30.20
7700;DHT22;3892;47.794;19.126;2023-03-01T00:23:43;12.50;30.50
7700;DHT22;3892;47.794;19.126;2023-03-01T00:26:12;12.50;30.50
7700;DHT22;3892;47.794;19.126;2023-03-01T00:28:40;12.50;30.60
7700;DHT22;3892;47.794;19.126;2023-03-01T00:31:09;12.50;30.90
7700;DHT22;3892;47.794;19.126;2023-03-01T00:33:37;12.50;30.90
7700;DHT22;3892;47.794;19.126;2023-03-01T00:36:05;12.50;30.90
7700;DHT22;3892;47.794;19.126;2023-03-01T00:38:34;12.50;30.80
7700;DHT22;3892;47.794;19.126;2023-03-01T00:41:08;12.50;30.70
7700;DHT22;3892;47.794;19.126;2023-03-01T00:43:35;12.50;30.40
7700;DHT22;3892;47.794;19.126;2023-03-01T00:46:04;12.60;30.40
7700;DHT22;3892;47.794;19.126;2023-03-01T00:48:32;12.60;30.30
7700;DHT22;3892;47.794;19.126;2023-03-01T00:51:05;12.60;30.30
7700;DHT22;3892;47.794;19.126;2023-03-01T00:53:32;12.60;30.50
7700;DHT22;3892;47.794;19.126;2023-03-01T00:55:59;12.60;30.40
7700;DHT22;3892;47.794;19.126;2023-03-01T00:58:28;12.60;30.50
7700;DHT22;3892;47.794;19.126;2023-03-01T01:00:55;12.50;30.70
7700;DHT22;3892;47.794;19.126;2023-03-01T01:03:22;12.40;30.90
7700;DHT22;3892;47.794;19.126;2023-03-01T01:05:50;12.50;31.00
7700;DHT22;3892;47.794;19.126;2023-03-01T01:08:17;12.50;31.30
7700;DHT22;3892;47.794;19.126;2023-03-01T01:10:46;12.40;31.20
7700;DHT22;3892;47.794;19.126;2023-03-01T01:13:13;12.40;31.30
7700;DHT22;3892;47.794;19.126;2023-03-01T01:15:42;12.20;31.10
7700;DHT22;3892;47.794;19.126;2023-03-01T01:18:09;12.10;31.40
7700;DHT22;3892;47.794;19.126;2023-03-01T01:20:36;12.10;31.20
7700;DHT22;3892;47.794;19.126;2023-03-01T01:23:05;12.00;31.20
7700;DHT22;3892;47.794;19.126;2023-03-01T01:25:35;12.10;31.20
7700;DHT22;3892;47.794;19.126;2023-03-01T01:28:02;12.10;31.40
7700;DHT22;3892;47.794;19.126;2023-03-01T01:30:30;12.10;31.40
7700;DHT22;3892;47.794;19.126;2023-03-01T01:32:58;12.10;31.60
7700;DHT22;3892;47.794;19.126;2023-03-01T01:35:25;12.10;31.60
7700;DHT22;3892;47.794;19.126;2023-03-01T01:37:52;12.00;31.50
7700;DHT22;3892;47.794;19.126;2023-03-01T01:40:19;12.00;31.50
7700;DHT22;3892;47.794;19.126;2023-03-01T01:42:46;11.90;31.50
7700;DHT22;3892;47.794;19.126;2023-03-01T01:45:35;12.00;31.60
7700;DHT22;3892;47.794;19.126;2023-03-01T01:48:09;12.00;31.60
7700;DHT22;3892;47.794;19.126;2023-03-01T01:50:39;12.00;31.60
7700;DHT22;3892;47.794;19.126;2023-03-01T01:53:09;12.10;31.70
7700;DHT22;3892;47.794;19.126;2023-03-01T01:55:42;12.10;31.50
7700;DHT22;3892;47.794;19.126;2023-03-01T01:58:11;12.20;31.60
7700;DHT22;3892;47.794;19.126;2023-03-01T02:00:40;12.20;31.70
7700;DHT22;3892;47.794;19.126;2023-03-01T02:03:11;12.20;31.70
7700;DHT22;3892;47.794;19.126;2023-03-01T02:05:43;12.20;31.80
7700;DHT22;3892;47.794;19.126;2023-03-01T02:08:13;12.20;31.90
7700;DHT22;3892;47.794;19.126;2023-03-01T02:10:43;12.20;31.80
7700;DHT22;3892;47.794;19.126;2023-03-01T02:13:11;12.20;31.70
7700;DHT22;3892;47.794;19.126;2023-03-01T02:15:39;12.20;31.80
7700;DHT22;3892;47.794;19.126;2023-03-01T02:18:16;12.10;31.70
7700;DHT22;3892;47.794;19.126;2023-03-01T02:20:52;12.20;31.80
7700;DHT22;3892;47.794;19.126;2023-03-01T02:23:23;12.20;31.90
7700;DHT22;3892;47.794;19.126;2023-03-01T02:25:55;12.20;31.90
7700;DHT22;3892;47.794;19.126;2023-03-01T02:28:30;12.20;31.90
7700;DHT22;3892;47.794;19.126;2023-03-01T02:30:57;12.20;31.90
7700;DHT22;3892;47.794;19.126;2023-03-01T02:33:43;12.20;32.40
7700;DHT22;3892;47.794;19.126;2023-03-01T02:36:14;12.20;31.80
7700;DHT22;3892;47.794;19.126;2023-03-01T02:38:41;12.30;32.00
7700;DHT22;3892;47.794;19.126;2023-03-01T02:41:09;12.30;31.90
7700;DHT22;3892;47.794;19.126;2023-03-01T02:43:38;12.20;31.80
7700;DHT22;3892;47.794;19.126;2023-03-01T02:46:07;12.30;31.70
7700;DHT22;3892;47.794;19.126;2023-03-01T02:48:42;12.30;31.70
7700;DHT22;3892;47.794;19.126;2023-03-01T02:51:31;12.20;31.60
7700;DHT22;3892;47.794;19.126;2023-03-01T02:54:10;12.20;31.50
7700;DHT22;3892;47.794;19.126;2023-03-01T02:56:39;12.20;31.50
7700;DHT22;3892;47.794;19.126;2023-03-01T02:59:09;12.20;31.40
7700;DHT22;3892;47.794;19.126;2023-03-01T03:01:37;12.20;31.40
7700;DHT22;3892;47.794;19.126;2023-03-01T03:04:07;12.20;31.50
7700;DHT22;3892;47.794;19.126;2023-03-01T03:06:36;12.20;31.40
7700;DHT22;3892;47.794;19.126;2023-03-01T03:09:04;12.20;31.40
7700;DHT22;3892;47.794;19.126;2023-03-01T03:11:32;12.20;31.50
7700;DHT22;3892;47.794;19.126;2023-03-01T03:14:00;12.20;31.40
7700;DHT22;3892;47.794;19.126;2023-03-01T03:16:29;12.10;31.40
7700;DHT22;3892;47.794;19.126;2023-03-01T03:18:56;12.20;31.60
7700;DHT22;3892;47.794;19.126;2023-03-01T03:21:31;12.20;31.60
7700;DHT22;3892;47.794;19.126;2023-03-01T03:23:58;12.20;31.70
7700;DHT22;3892;47.794;19.126;2023-03-01T03:26:25;12.20;31.60
7700;DHT22;3892;47.794;19.126;2023-03-01T03:28:52;12.20;31.50
7700;DHT22;3892;47.794;19.126;2023-03-01T03:31:20;12.20;31.70
7700;DHT22;3892;47.794;19.126;2023-03-01T03:33:48;12.20;31.70
7700;DHT22;3892;47.794;19.126;2023-03-01T03:36:16;12.20;31.70
7700;DHT22;3892;47.794;19.126;2023-03-01T03:38:44;12.20;32.00
7700;DHT22;3892;47.794;19.126;2023-03-01T03:41:11;12.20;31.70
7700;DHT22;3892;47.794;19.126;2023-03-01T03:43:40;12.20;31.80
7700;DHT22;3892;47.794;19.126;2023-03-01T03:46:09;12.20;31.70
7700;DHT22;3892;47.794;19.126;2023-03-01T03:48:38;12.20;31.70
7700;DHT22;3892;47.794;19.126;2023-03-01T03:51:07;12.20;31.60
7700;DHT22;3892;47.794;19.126;2023-03-01T03:53:36;12.20;31.70
7700;DHT22;3892;47.794;19.126;2023-03-01T03:56:03;12.20;31.70
7700;DHT22;3892;47.794;19.126;2023-03-01T03:58:30;12.20;31.70
7700;DHT22;3892;47.794;19.126;2023-03-01T04:00:57;12.20;31.50
7700;DHT22;3892;47.794;19.126;2023-03-01T04:03:26;12.30;31.40
7700;DHT22;3892;47.794;19.126;2023-03-01T04:05:54;12.20;31.30
7700;DHT22;3892;47.794;19.126;2023-03-01T04:08:23;12.20;31.30
7700;DHT22;3892;47.794;19.126;2023-03-01T04:10:51;12.20;31.20
7700;DHT22;3892;47.794;19.126;2023-03-01T04:13:21;12.30;31.10
7700;DHT22;3892;47.794;19.126;2023-03-01T04:15:49;12.20;30.80
7700;DHT22;3892;47.794;19.126;2023-03-01T04:18:17;12.20;30.90
7700;DHT22;3892;47.794;19.126;2023-03-01T04:20:45;12.20;30.90
7700;DHT22;3892;47.794;19.126;2023-03-01T04:23:13;12.30;31.60
7700;DHT22;3892;47.794;19.126;2023-03-01T04:25:46;12.20;30.90
7700;DHT22;3892;47.794;19.126;2023-03-01T04:28:15;12.20;31.10
7700;DHT22;3892;47.794;19.126;2023-03-01T04:30:42;12.20;31.10
7700;DHT22;3892;47.794;19.126;2023-03-01T04:33:10;12.20;31.00
7700;DHT22;3892;47.794;19.126;2023-03-01T04:35:38;12.20;30.70
7700;DHT22;3892;47.794;19.126;2023-03-01T04:38:06;12.20;30.80
7700;DHT22;3892;47.794;19.126;2023-03-01T04:40:33;12.10;31.00
7700;DHT22;3892;47.794;19.126;2023-03-01T04:43:02;12.10;30.80
7700;DHT22;3892;47.794;19.126;2023-03-01T04:45:30;12.10;30.90
7700;DHT22;3892;47.794;19.126;2023-03-01T04:47:58;12.10;31.70
7700;DHT22;3892;47.794;19.126;2023-03-01T04:50:25;12.00;31.20
7700;DHT22;3892;47.794;19.126;2023-03-01T04:52:52;12.00;31.40
7700;DHT22;3892;47.794;19.126;2023-03-01T04:55:19;11.90;31.50
7700;DHT22;3892;47.794;19.126;2023-03-01T04:57:46;12.00;31.90
7700;DHT22;3892;47.794;19.126;2023-03-01T05:00:15;11.90;32.10
7700;DHT22;3892;47.794;19.126;2023-03-01T05:02:50;11.90;32.20
7700;DHT22;3892;47.794;19.126;2023-03-01T05:05:24;12.00;32.20
7700;DHT22;3892;47.794;19.126;2023-03-01T05:07:53;12.00;32.30
7700;DHT22;3892;47.794;19.126;2023-03-01T05:10:21;12.00;32.20
7700;DHT22;3892;47.794;19.126;2023-03-01T05:12:48;12.10;32.00
7700;DHT22;3892;47.794;19.126;2023-03-01T05:15:16;12.10;31.80
7700;DHT22;3892;47.794;19.126;2023-03-01T05:17:43;12.10;31.80
7700;DHT22;3892;47.794;19.126;2023-03-01T05:20:12;12.10;31.90
7700;DHT22;3892;47.794;19.126;2023-03-01T05:22:39;12.10;32.00
7700;DHT22;3892;47.794;19.126;2023-03-01T05:25:06;12.20;32.10
7700;DHT22;3892;47.794;19.126;2023-03-01T05:27:34;12.10;32.10
7700;DHT22;3892;47.794;19.126;2023-03-01T05:30:01;12.20;32.10
7700;DHT22;3892;47.794;19.126;2023-03-01T05:32:42;12.20;32.10
7700;DHT22;3892;47.794;19.126;2023-03-01T05:35:11;12.20;32.00
7700;DHT22;3892;47.794;19.126;2023-03-01T05:37:41;12.20;32.00
7700;DHT22;3892;47.794;19.126;2023-03-01T05:40:10;12.20;32.10
7700;DHT22;3892;47.794;19.126;2023-03-01T05:42:42;12.20;32.00
7700;DHT22;3892;47.794;19.126;2023-03-01T05:45:10;12.20;32.10
7700;DHT22;3892;47.794;19.126;2023-03-01T05:47:38;12.20;32.00
7700;DHT22;3892;47.794;19.126;2023-03-01T05:50:12;12.20;31.90
7700;DHT22;3892;47.794;19.126;2023-03-01T05:52:39;12.20;31.80
7700;DHT22;3892;47.794;19.126;2023-03-01T05:55:07;12.20;31.90
7700;DHT22;3892;47.794;19.126;2023-03-01T05:57:34;12.20;32.10
7700;DHT22;3892;47.794;19.126;2023-03-01T06:00:03;12.20;32.10
7700;DHT22;3892;47.794;19.126;2023-03-01T06:02:38;12.20;32.20
7700;DHT22;3892;47.794;19.126;2023-03-01T06:05:07;12.20;32.40
7700;DHT22;3892;47.794;19.126;2023-03-01T06:07:36;12.10;32.40
7700;DHT22;3892;47.794;19.126;2023-03-01T06:10:04;12.10;32.40
7700;DHT22;3892;47.794;19.126;2023-03-01T06:12:32;12.20;32.40
7700;DHT22;3892;47.794;19.126;2023-03-01T06:15:03;12.20;32.30
7700;DHT22;3892;47.794;19.126;2023-03-01T06:17:31;12.20;32.30
7700;DHT22;3892;47.794;19.126;2023-03-01T06:19:58;12.20;32.20
7700;DHT22;3892;47.794;19.126;2023-03-01T06:22:27;12.20;32.10
7700;DHT22;3892;47.794;19.126;2023-03-01T06:24:55;12.30;32.10
7700;DHT22;3892;47.794;19.126;2023-03-01T06:27:22;12.30;32.40
7700;DHT22;3892;47.794;19.126;2023-03-01T06:29:49;12.30;31.70
7700;DHT22;3892;47.794;19.126;2023-03-01T06:32:16;12.30;31.70
7700;DHT22;3892;47.794;19.126;2023-03-01T06:34:43;12.30;31.80
7700;DHT22;3892;47.794;19.126;2023-03-01T06:37:10;12.30;31.80
7700;DHT22;3892;47.794;19.126;2023-03-01T06:39:38;12.20;31.80
7700;DHT22;3892;47.794;19.126;2023-03-01T06:42:07;12.20;31.80
7700;DHT22;3892;47.794;19.126;2023-03-01T06:44:35;12.30;31.90
7700;DHT22;3892;47.794;19.126;2023-03-01T06:47:03;12.30;31.70
7700;DHT22;3892;47.794;19.126;2023-03-01T06:49:30;12.30;31.80
7700;DHT22;3892;47.794;19.126;2023-03-01T06:51:57;12.30;31.70
7700;DHT22;3892;47.794;19.126;2023-03-01T06:54:24;12.10;31.50
7700;DHT22;3892;47.794;19.126;2023-03-01T06:56:51;12.00;31.60
7700;DHT22;3892;47.794;19.126;2023-03-01T06:59:20;12.00;31.70
7700;DHT22;3892;47.794;19.126;2023-03-01T07:01:47;12.00;31.70
7700;DHT22;3892;47.794;19.126;2023-03-01T07:04:14;11.90;31.70
7700;DHT22;3892;47.794;19.126;2023-03-01T07:06:41;11.90;31.70
7700;DHT22;3892;47.794;19.126;2023-03-01T07:09:08;11.80;31.50
7700;DHT22;3892;47.794;19.126;2023-03-01T07:11:35;11.70;31.30
7700;DHT22;3892;47.794;19.126;2023-03-01T07:14:02;11.60;31.20
7700;DHT22;3892;47.794;19.126;2023-03-01T07:16:30;11.60;31.30
7700;DHT22;3892;47.794;19.126;2023-03-01T07:18:57;11.50;31.30
7700;DHT22;3892;47.794;19.126;2023-03-01T07:21:24;11.50;31.40
7700;DHT22;3892;47.794;19.126;2023-03-01T07:23:51;11.50;31.50
7700;DHT22;3892;47.794;19.126;2023-03-01T07:26:18;11.50;31.40
7700;DHT22;3892;47.794;19.126;2023-03-01T07:28:45;11.60;31.50
7700;DHT22;3892;47.794;19.126;2023-03-01T07:31:12;11.70;31.40
7700;DHT22;3892;47.794;19.126;2023-03-01T07:33:41;11.80;31.20
7700;DHT22;3892;47.794;19.126;2023-03-01T07:36:09;11.70;31.00
7700;DHT22;3892;47.794;19.126;2023-03-01T07:38:36;11.80;31.10
7700;DHT22;3892;47.794;19.126;2023-03-01T07:41:04;11.90;31.20
7700;DHT22;3892;47.794;19.126;2023-03-01T07:43:31;11.90;31.20
7700;DHT22;3892;47.794;19.126;2023-03-01T07:45:58;12.00;31.20
7700;DHT22;3892;47.794;19.126;2023-03-01T07:48:26;12.10;31.30
7700;DHT22;3892;47.794;19.126;2023-03-01T07:50:57;12.20;31.30
7700;DHT22;3892;47.794;19.126;2023-03-01T07:53:24;12.30;31.20
7700;DHT22;3892;47.794;19.126;2023-03-01T07:56:00;12.30;30.80
7700;DHT22;3892;47.794;19.126;2023-03-01T07:58:27;12.40;30.80
7700;DHT22;3892;47.794;19.126;2023-03-01T08:00:54;12.50;30.90
7700;DHT22;3892;47.794;19.126;2023-03-01T08:03:21;12.50;30.60
7700;DHT22;3892;47.794;19.126;2023-03-01T08:05:48;12.60;30.50
7700;DHT22;3892;47.794;19.126;2023-03-01T08:08:16;12.60;30.30
7700;DHT22;3892;47.794;19.126;2023-03-01T08:10:43;12.60;30.00
7700;DHT22;3892;47.794;19.126;2023-03-01T08:13:11;12.70;29.90
7700;DHT22;3892;47.794;19.126;2023-03-01T08:15:38;12.80;29.90
7700;DHT22;3892;47.794;19.126;2023-03-01T08:18:05;12.80;29.70
7700;DHT22;3892;47.794;19.126;2023-03-01T08:20:32;12.80;29.70
7700;DHT22;3892;47.794;19.126;2023-03-01T08:22:59;12.90;29.90
7700;DHT22;3892;47.794;19.126;2023-03-01T08:25:27;12.90;29.90
7700;DHT22;3892;47.794;19.126;2023-03-01T08:27:54;13.00;29.90
7700;DHT22;3892;47.794;19.126;2023-03-01T08:30:21;13.00;29.80
7700;DHT22;3892;47.794;19.126;2023-03-01T08:32:49;13.00;30.00
7700;DHT22;3892;47.794;19.126;2023-03-01T08:35:17;13.00;30.00
7700;DHT22;3892;47.794;19.126;2023-03-01T08:37:44;13.10;29.80
7700;DHT22;3892;47.794;19.126;2023-03-01T08:40:12;13.30;29.80
7700;DHT22;3892;47.794;19.126;2023-03-01T08:42:41;13.40;29.70
7700;DHT22;3892;47.794;19.126;2023-03-01T08:45:10;13.50;29.50
7700;DHT22;3892;47.794;19.126;2023-03-01T08:47:38;13.60;29.50
7700;DHT22;3892;47.794;19.126;2023-03-01T08:50:06;13.80;29.30
7700;DHT22;3892;47.794;19.126;2023-03-01T08:52:33;13.90;29.00
7700;DHT22;3892;47.794;19.126;2023-03-01T08:55:00;13.90;29.00
7700;DHT22;3892;47.794;19.126;2023-03-01T08:57:28;14.00;28.90
7700;DHT22;3892;47.794;19.126;2023-03-01T08:59:56;14.20;29.00
7700;DHT22;3892;47.794;19.126;2023-03-01T09:02:23;14.30;29.20
7700;DHT22;3892;47.794;19.126;2023-03-01T09:04:50;14.50;29.10
7700;DHT22;3892;47.794;19.126;2023-03-01T09:07:17;14.60;29.00
7700;DHT22;3892;47.794;19.126;2023-03-01T09:09:44;14.70;28.90
7700;DHT22;3892;47.794;19.126;2023-03-01T09:12:11;14.70;29.00
7700;DHT22;3892;47.794;19.126;2023-03-01T09:14:38;14.80;29.40
7700;DHT22;3892;47.794;19.126;2023-03-01T09:17:08;15.00;29.30
7700;DHT22;3892;47.794;19.126;2023-03-01T09:19:35;15.10;29.00
7700;DHT22;3892;47.794;19.126;2023-03-01T09:22:03;15.30;29.10
7700;DHT22;3892;47.794;19.126;2023-03-01T09:24:30;15.40;28.80
7700;DHT22;3892;47.794;19.126;2023-03-01T09:26:57;15.60;28.90
7700;DHT22;3892;47.794;19.126;2023-03-01T09:29:24;15.70;28.90
7700;DHT22;3892;47.794;19.126;2023-03-01T09:31:51;15.70;28.60
7700;DHT22;3892;47.794;19.126;2023-03-01T09:34:22;15.80;28.20
7700;DHT22;3892;47.794;19.126;2023-03-01T09:36:49;16.00;28.60
7700;DHT22;3892;47.794;19.126;2023-03-01T09:39:17;16.10;28.40
7700;DHT22;3892;47.794;19.126;2023-03-01T09:41:48;16.30;28.40
7700;DHT22;3892;47.794;19.126;2023-03-01T09:44:27;16.50;28.20
7700;DHT22;3892;47.794;19.126;2023-03-01T09:46:55;16.60;28.10
7700;DHT22;3892;47.794;19.126;2023-03-01T09:49:26;16.60;27.90
7700;DHT22;3892;47.794;19.126;2023-03-01T09:51:58;16.80;28.20
7700;DHT22;3892;47.794;19.126;2023-03-01T09:54:26;16.90;28.20
7700;DHT22;3892;47.794;19.126;2023-03-01T09:57:05;16.90;27.70
7700;DHT22;3892;47.794;19.126;2023-03-01T09:59:40;16.90;27.70
7700;DHT22;3892;47.794;19.126;2023-03-01T10:02:22;16.90;27.70
7700;DHT22;3892;47.794;19.126;2023-03-01T10:04:52;17.00;28.00
7700;DHT22;3892;47.794;19.126;2023-03-01T10:07:30;17.10;27.90
7700;DHT22;3892;47.794;19.126;2023-03-01T10:09:59;17.20;27.40
7700;DHT22;3892;47.794;19.126;2023-03-01T10:12:34;17.40;27.90
7700;DHT22;3892;47.794;19.126;2023-03-01T10:15:06;17.50;27.50
7700;DHT22;3892;47.794;19.126;2023-03-01T10:17:38;17.60;27.70
7700;DHT22;3892;47.794;19.126;2023-03-01T10:20:19;17.70;27.50
7700;DHT22;3892;47.794;19.126;2023-03-01T10:22:47;17.80;27.70
7700;DHT22;3892;47.794;19.126;2023-03-01T10:25:24;18.00;27.60
7700;DHT22;3892;47.794;19.126;2023-03-01T10:27:53;18.10;27.30
7700;DHT22;3892;47.794;19.126;2023-03-01T10:30:27;18.40;27.30
7700;DHT22;3892;47.794;19.126;2023-03-01T10:32:57;18.50;27.40
7700;DHT22;3892;47.794;19.126;2023-03-01T10:35:29;18.70;27.20
7700;DHT22;3892;47.794;19.126;2023-03-01T10:38:04;18.80;27.10
7700;DHT22;3892;47.794;19.126;2023-03-01T10:40:32;18.80;26.90
7700;DHT22;3892;47.794;19.126;2023-03-01T10:43:01;18.80;26.70
7700;DHT22;3892;47.794;19.126;2023-03-01T10:45:34;18.90;26.90
7700;DHT22;3892;47.794;19.126;2023-03-01T10:48:13;19.10;27.00
7700;DHT22;3892;47.794;19.126;2023-03-01T10:50:44;19.20;27.00
7700;DHT22;3892;47.794;19.126;2023-03-01T10:53:26;19.30;26.80
7700;DHT22;3892;47.794;19.126;2023-03-01T10:55:59;19.40;26.80
7700;DHT22;3892;47.794;19.126;2023-03-01T10:58:28;19.50;26.70
7700;DHT22;3892;47.794;19.126;2023-03-01T11:00:57;19.60;26.70
7700;DHT22;3892;47.794;19.126;2023-03-01T11:03:26;19.70;26.70
7700;DHT22;3892;47.794;19.126;2023-03-01T11:06:01;19.70;26.60
7700;DHT22;3892;47.794;19.126;2023-03-01T11:08:42;19.80;26.70
7700;DHT22;3892;47.794;19.126;2023-03-01T11:11:31;19.90;26.80
7700;DHT22;3892;47.794;19.126;2023-03-01T11:14:00;20.00;26.70
7700;DHT22;3892;47.794;19.126;2023-03-01T11:16:34;20.10;27.00
7700;DHT22;3892;47.794;19.126;2023-03-01T11:19:15;20.20;26.60
7700;DHT22;3892;47.794;19.126;2023-03-01T11:21:53;20.30;26.70
7700;DHT22;3892;47.794;19.126;2023-03-01T11:24:26;20.20;26.40
7700;DHT22;3892;47.794;19.126;2023-03-01T11:27:00;20.10;26.40
7700;DHT22;3892;47.794;19.126;2023-03-01T11:29:38;19.90;26.30
7700;DHT22;3892;47.794;19.126;2023-03-01T11:32:08;20.10;26.70
7700;DHT22;3892;47.794;19.126;2023-03-01T11:34:42;20.20;26.70
7700;DHT22;3892;47.794;19.126;2023-03-01T11:37:23;20.30;26.80
7700;DHT22;3892;47.794;19.126;2023-03-01T11:39:58;20.60;27.00
7700;DHT22;3892;47.794;19.126;2023-03-01T11:42:35;20.60;26.30
7700;DHT22;3892;47.794;19.126;2023-03-01T11:45:09;20.80;26.30
7700;DHT22;3892;47.794;19.126;2023-03-01T11:47:59;21.10;26.30
7700;DHT22;3892;47.794;19.126;2023-03-01T11:50:38;21.50;26.40
7700;DHT22;3892;47.794;19.126;2023-03-01T11:53:29;21.80;25.90
7700;DHT22;3892;47.794;19.126;2023-03-01T11:56:04;22.30;26.20
7700;DHT22;3892;47.794;19.126;2023-03-01T11:58:59;22.90;25.90
7700;DHT22;3892;47.794;19.126;2023-03-01T12:01:42;23.50;25.90
7700;DHT22;3892;47.794;19.126;2023-03-01T12:04:38;24.30;28.10
7700;DHT22;3892;47.794;19.126;2023-03-01T12:07:15;25.00;26.10
7700;DHT22;3892;47.794;19.126;2023-03-01T12:09:56;25.70;25.60
7700;DHT22;3892;47.794;19.126;2023-03-01T12:12:42;26.50;24.80
7700;DHT22;3892;47.794;19.126;2023-03-01T12:18:32;27.70;24.10
7700;DHT22;3892;47.794;19.126;2023-03-01T12:21:13;28.10;23.90
7700;DHT22;3892;47.794;19.126;2023-03-01T12:24:15;27.90;23.60
7700;DHT22;3892;47.794;19.126;2023-03-01T12:26:55;28.10;23.70
7700;DHT22;3892;47.794;19.126;2023-03-01T12:29:29;28.10;23.30
7700;DHT22;3892;47.794;19.126;2023-03-01T12:32:15;28.10;23.50
7700;DHT22;3892;47.794;19.126;2023-03-01T12:35:11;28.10;23.40
7700;DHT22;3892;47.794;19.126;2023-03-01T12:37:54;27.90;23.30
7700;DHT22;3892;47.794;19.126;2023-03-01T12:40:32;27.70;23.60
7700;DHT22;3892;47.794;19.126;2023-03-01T12:43:20;27.50;23.50
7700;DHT22;3892;47.794;19.126;2023-03-01T12:45:57;27.10;23.70
7700;DHT22;3892;47.794;19.126;2023-03-01T12:48:40;26.60;23.60
7700;DHT22;3892;47.794;19.126;2023-03-01T12:51:13;26.10;23.70
7700;DHT22;3892;47.794;19.126;2023-03-01T12:53:44;25.60;24.20
7700;DHT22;3892;47.794;19.126;2023-03-01T12:56:14;25.20;24.40
7700;DHT22;3892;47.794;19.126;2023-03-01T12:58:53;24.80;24.50
7700;DHT22;3892;47.794;19.126;2023-03-01T13:01:28;24.40;24.60
7700;DHT22;3892;47.794;19.126;2023-03-01T13:06:57;23.80;25.10
7700;DHT22;3892;47.794;19.126;2023-03-01T13:09:31;23.50;25.10
7700;DHT22;3892;47.794;19.126;2023-03-01T13:12:01;23.30;25.30
7700;DHT22;3892;47.794;19.126;2023-03-01T13:14:37;23.10;25.60
7700;DHT22;3892;47.794;19.126;2023-03-01T13:17:29;22.90;25.50
7700;DHT22;3892;47.794;19.126;2023-03-01T13:19:58;22.80;25.70
7700;DHT22;3892;47.794;19.126;2023-03-01T13:22:28;22.60;25.70
7700;DHT22;3892;47.794;19.126;2023-03-01T13:25:18;22.40;26.00
7700;DHT22;3892;47.794;19.126;2023-03-01T13:27:46;22.10;25.40
7700;DHT22;3892;47.794;19.126;2023-03-01T13:30:43;21.70;25.60
7700;DHT22;3892;47.794;19.126;2023-03-01T13:33:39;21.40;26.00
7700;DHT22;3892;47.794;19.126;2023-03-01T13:36:07;21.20;26.00
7700;DHT22;3892;47.794;19.126;2023-03-01T13:38:39;21.20;26.10
7700;DHT22;3892;47.794;19.126;2023-03-01T13:41:12;21.20;26.20
7700;DHT22;3892;47.794;19.126;2023-03-01T13:43:41;21.10;26.00
7700;DHT22;3892;47.794;19.126;2023-03-01T13:46:15;21.00;26.30
7700;DHT22;3892;47.794;19.126;2023-03-01T13:48:45;21.10;26.50
7700;DHT22;3892;47.794;19.126;2023-03-01T13:51:14;21.10;26.70
7700;DHT22;3892;47.794;19.126;2023-03-01T13:53:43;21.20;26.50
7700;DHT22;3892;47.794;19.126;2023-03-01T13:56:13;21.10;26.40
7700;DHT22;3892;47.794;19.126;2023-03-01T13:58:48;21.20;26.50
7700;DHT22;3892;47.794;19.126;2023-03-01T14:01:26;21.20;26.30
7700;DHT22;3892;47.794;19.126;2023-03-01T14:03:53;21.30;26.40
7700;DHT22;3892;47.794;19.126;2023-03-01T14:06:23;21.40;26.50
7700;DHT22;3892;47.794;19.126;2023-03-01T14:08:59;21.20;25.80
7700;DHT22;3892;47.794;19.126;2023-03-01T14:11:52;21.20;26.50
7700;DHT22;3892;47.794;19.126;2023-03-01T14:14:47;21.20;26.50
7700;DHT22;3892;47.794;19.126;2023-03-01T14:17:39;21.10;26.30
7700;DHT22;3892;47.794;19.126;2023-03-01T14:20:12;21.10;26.30
7700;DHT22;3892;47.794;19.126;2023-03-01T14:22:43;21.20;26.20
7700;DHT22;3892;47.794;19.126;2023-03-01T14:25:22;21.20;26.30
7700;DHT22;3892;47.794;19.126;2023-03-01T14:27:58;21.20;26.10
7700;DHT22;3892;47.794;19.126;2023-03-01T14:30:30;21.30;26.50
7700;DHT22;3892;47.794;19.126;2023-03-01T14:33:01;21.30;26.00
7700;DHT22;3892;47.794;19.126;2023-03-01T14:35:30;21.20;25.90
7700;DHT22;3892;47.794;19.126;2023-03-01T14:37:57;21.20;26.70
7700;DHT22;3892;47.794;19.126;2023-03-01T14:40:28;21.20;26.10
7700;DHT22;3892;47.794;19.126;2023-03-01T14:42:57;21.30;26.30
7700;DHT22;3892;47.794;19.126;2023-03-01T14:45:28;21.30;26.10
7700;DHT22;3892;47.794;19.126;2023-03-01T14:48:00;21.40;26.50
7700;DHT22;3892;47.794;19.126;2023-03-01T14:50:30;21.40;26.20
7700;DHT22;3892;47.794;19.126;2023-03-01T14:53:00;21.40;26.00
7700;DHT22;3892;47.794;19.126;2023-03-01T14:55:31;21.40;26.10
7700;DHT22;3892;47.794;19.126;2023-03-01T14:58:03;21.40;26.20
7700;DHT22;3892;47.794;19.126;2023-03-01T15:00:32;21.30;26.30
7700;DHT22;3892;47.794;19.126;2023-03-01T15:03:06;21.30;26.50
7700;DHT22;3892;47.794;19.126;2023-03-01T15:05:40;21.40;26.20
7700;DHT22;3892;47.794;19.126;2023-03-01T15:08:08;21.30;26.30
7700;DHT22;3892;47.794;19.126;2023-03-01T15:10:57;21.20;25.80
7700;DHT22;3892;47.794;19.126;2023-03-01T15:13:26;21.10;26.30
7700;DHT22;3892;47.794;19.126;2023-03-01T15:16:02;21.00;26.40
7700;DHT22;3892;47.794;19.126;2023-03-01T15:18:32;21.00;26.40
7700;DHT22;3892;47.794;19.126;2023-03-01T15:21:08;21.00;26.30
7700;DHT22;3892;47.794;19.126;2023-03-01T15:23:37;21.00;26.40
7700;DHT22;3892;47.794;19.126;2023-03-01T15:26:05;20.90;26.40
7700;DHT22;3892;47.794;19.126;2023-03-01T15:28:34;20.90;26.40
7700;DHT22;3892;47.794;19.126;2023-03-01T15:31:12;20.80;26.30
7700;DHT22;3892;47.794;19.126;2023-03-01T15:33:45;20.80;26.40
7700;DHT22;3892;47.794;19.126;2023-03-01T15:36:33;20.80;26.50
7700;DHT22;3892;47.794;19.126;2023-03-01T15:39:03;20.80;26.60
7700;DHT22;3892;47.794;19.126;2023-03-01T15:41:37;20.80;26.40
7700;DHT22;3892;47.794;19.126;2023-03-01T15:44:15;20.70;26.40
7700;DHT22;3892;47.794;19.126;2023-03-01T15:46:46;20.60;26.50
7700;DHT22;3892;47.794;19.126;2023-03-01T15:49:27;20.60;26.50
7700;DHT22;3892;47.794;19.126;2023-03-01T15:51:55;20.60;26.60
7700;DHT22;3892;47.794;19.126;2023-03-01T15:54:25;20.50;26.50
7700;DHT22;3892;47.794;19.126;2023-03-01T15:56:53;20.50;26.80
7700;DHT22;3892;47.794;19.126;2023-03-01T15:59:20;20.50;26.90
7700;DHT22;3892;47.794;19.126;2023-03-01T16:01:48;20.40;26.80
7700;DHT22;3892;47.794;19.126;2023-03-01T16:04:17;20.30;27.00
7700;DHT22;3892;47.794;19.126;2023-03-01T16:06:51;20.30;27.10
7700;DHT22;3892;47.794;19.126;2023-03-01T16:09:22;20.20;26.80
7700;DHT22;3892;47.794;19.126;2023-03-01T16:11:50;20.10;26.90
7700;DHT22;3892;47.794;19.126;2023-03-01T16:14:18;20.00;27.00
7700;DHT22;3892;47.794;19.126;2023-03-01T16:16:46;19.90;27.20